createdAt,value
2022-09-14T00:00:18.115Z,5.25
2022-09-14T00:02:46.790Z,5.80
2022-09-14T00:05:14.291Z,4.72
2022-09-14T00:07:41.410Z,5.75
2022-09-14T00:10:08.763Z,5.13
2022-09-14T00:12:35.922Z,5.40
2022-09-14T00:15:03.214Z,5.80
2022-09-14T00:17:30.352Z,5.47
2022-09-14T00:19:57.562Z,5.35
2022-09-14T00:22:24.683Z,5.45
2022-09-14T00:24:51.846Z,5.22
2022-09-14T00:27:19.013Z,5.03
2022-09-14T00:29:48.578Z,5.88
2022-09-14T00:32:16.016Z,5.75
2022-09-14T00:34:43.276Z,5.72
2022-09-14T00:37:12.010Z,6.05
2022-09-14T00:39:39.331Z,6.95
2022-09-14T00:42:06.599Z,6.45
2022-09-14T00:44:33.801Z,6.18
2022-09-14T00:47:02.352Z,6.15
2022-09-14T00:49:34.380Z,6.50
2022-09-14T00:52:13.720Z,6.38
2022-09-14T00:54:52.103Z,5.95
2022-09-14T00:57:20.141Z,6.10
2022-09-14T00:59:48.486Z,6.57
2022-09-14T01:02:16.245Z,5.78
2022-09-14T01:04:44.085Z,6.00
2022-09-14T01:07:11.712Z,5.68
2022-09-14T01:09:57.513Z,6.35
2022-09-14T01:12:30.118Z,6.55
2022-09-14T01:14:57.282Z,5.22
2022-09-14T01:17:29.257Z,6.57
2022-09-14T01:19:59.570Z,6.25
2022-09-14T01:22:33.223Z,6.50
2022-09-14T01:27:27.466Z,6.72
2022-09-14T01:30:03.177Z,6.93
2022-09-14T01:32:42.947Z,6.50
2022-09-14T01:35:14.053Z,6.47
2022-09-14T01:37:42.887Z,6.77
2022-09-14T01:40:13.195Z,7.70
2022-09-14T01:42:42.122Z,7.20
2022-09-14T01:45:10.426Z,6.65
2022-09-14T01:47:40.663Z,6.90
2022-09-14T01:50:19.610Z,6.03
2022-09-14T01:52:49.470Z,6.45
2022-09-14T01:55:19.178Z,6.72
2022-09-14T01:58:04.718Z,6.30
2022-09-14T02:00:32.087Z,6.35
2022-09-14T02:03:02.276Z,6.38
2022-09-14T02:05:29.583Z,6.90
2022-09-14T02:07:57.792Z,6.18
2022-09-14T02:10:25.100Z,6.90
2022-09-14T02:12:53.115Z,7.22
2022-09-14T02:15:21.293Z,7.00
2022-09-14T02:17:48.619Z,7.00
2022-09-14T02:20:27.884Z,6.18
2022-09-14T02:22:55.066Z,7.53
2022-09-14T02:25:22.297Z,7.60
2022-09-14T02:27:49.495Z,8.13
2022-09-14T02:30:17.816Z,7.25
2022-09-14T02:32:47.957Z,7.22
2022-09-14T02:35:21.288Z,6.57
2022-09-14T02:37:48.399Z,7.65
2022-09-14T02:40:21.618Z,6.80
2022-09-14T02:43:04.282Z,6.07
2022-09-14T02:45:54.714Z,6.43
2022-09-14T02:48:34.164Z,7.15
2022-09-14T02:51:16.363Z,6.72
2022-09-14T02:53:45.921Z,7.13
2022-09-14T02:56:13.363Z,6.13
2022-09-14T02:58:42.820Z,6.45
2022-09-14T03:01:13.327Z,6.50
2022-09-14T03:03:40.896Z,7.90
2022-09-14T03:06:08.196Z,6.88
2022-09-14T03:08:35.788Z,6.38
2022-09-14T03:11:03.047Z,7.40
2022-09-14T03:13:30.225Z,7.10
2022-09-14T03:15:57.457Z,8.45
2022-09-14T03:18:24.650Z,8.30
2022-09-14T03:20:51.868Z,6.82
2022-09-14T03:23:18.997Z,7.28
2022-09-14T03:25:46.920Z,9.00
2022-09-14T03:28:14.059Z,8.05
2022-09-14T03:30:41.228Z,7.53
2022-09-14T03:33:08.614Z,7.60
2022-09-14T03:35:35.909Z,8.73
2022-09-14T03:38:03.632Z,11.68
2022-09-14T03:40:31.250Z,12.00
2022-09-14T03:42:58.536Z,10.18
2022-09-14T03:45:25.825Z,8.55
2022-09-14T03:47:53.011Z,8.65
2022-09-14T03:50:20.336Z,9.20
2022-09-14T03:52:47.539Z,8.93
2022-09-14T03:55:14.878Z,8.77
2022-09-14T03:57:42.069Z,9.48
2022-09-14T04:00:10.289Z,9.32
2022-09-14T04:02:37.701Z,8.50
2022-09-14T04:05:05.017Z,7.78
2022-09-14T04:07:32.214Z,10.20
2022-09-14T04:09:59.373Z,10.45
2022-09-14T04:12:26.483Z,8.68
2022-09-14T04:14:53.626Z,9.00
2022-09-14T04:17:20.736Z,8.90
2022-09-14T04:19:47.990Z,8.20
2022-09-14T04:22:15.194Z,7.60
2022-09-14T04:24:42.458Z,9.10
2022-09-14T04:27:09.740Z,7.80
2022-09-14T04:29:37.003Z,8.50
2022-09-14T04:32:04.347Z,8.63
2022-09-14T04:34:31.617Z,7.78
2022-09-14T04:36:58.805Z,8.02
2022-09-14T04:39:26.405Z,9.18
2022-09-14T04:41:53.492Z,7.72
2022-09-14T04:44:20.668Z,10.15
2022-09-14T04:46:47.987Z,7.88
2022-09-14T04:49:18.645Z,8.25
2022-09-14T04:51:46.047Z,9.98
2022-09-14T04:54:14.703Z,8.45
2022-09-14T04:56:41.933Z,9.63
2022-09-14T04:59:09.199Z,8.07
2022-09-14T05:01:43.900Z,9.13
2022-09-14T05:04:11.778Z,10.77
2022-09-14T05:06:39.828Z,8.85
2022-09-14T05:09:15.208Z,8.93
2022-09-14T05:11:42.618Z,9.98
2022-09-14T05:14:11.452Z,8.73
2022-09-14T05:16:39.142Z,9.35
2022-09-14T05:19:08.098Z,8.45
2022-09-14T05:21:36.338Z,8.82
2022-09-14T05:24:05.358Z,8.65
2022-09-14T05:26:32.783Z,8.18
2022-09-14T05:29:01.352Z,8.50
2022-09-14T05:31:29.120Z,9.02
2022-09-14T05:33:56.597Z,8.20
2022-09-14T05:36:24.251Z,7.60
2022-09-14T05:38:51.504Z,8.00
2022-09-14T05:41:18.899Z,8.10
2022-09-14T05:43:46.167Z,8.30
2022-09-14T05:46:14.836Z,9.10
2022-09-14T05:48:42.137Z,11.63
2022-09-14T05:51:16.798Z,15.68
2022-09-14T05:53:47.755Z,25.90
2022-09-14T05:56:15.118Z,25.65
2022-09-14T05:58:43.117Z,14.23
2022-09-14T06:01:14.590Z,13.63
2022-09-14T06:03:42.295Z,11.02
2022-09-14T06:06:10.389Z,9.40
2022-09-14T06:08:37.687Z,9.75
2022-09-14T06:11:09.215Z,12.35
2022-09-14T06:13:37.528Z,10.18
2022-09-14T06:16:05.529Z,10.65
2022-09-14T06:18:36.674Z,10.45
2022-09-14T06:21:04.102Z,9.40
2022-09-14T06:23:31.752Z,9.65
2022-09-14T06:26:00.034Z,8.38
2022-09-14T06:28:27.571Z,8.23
2022-09-14T06:30:55.229Z,8.98
2022-09-14T06:33:22.704Z,10.55
2022-09-14T06:35:55.953Z,11.00
2022-09-14T06:38:23.474Z,11.27
2022-09-14T06:40:56.946Z,10.40
2022-09-14T06:43:24.795Z,11.45
2022-09-14T06:46:05.461Z,11.27
2022-09-14T06:48:34.402Z,12.18
2022-09-14T06:51:01.937Z,13.30
2022-09-14T06:53:29.050Z,11.70
2022-09-14T06:56:00.142Z,11.02
2022-09-14T06:58:27.341Z,10.77
2022-09-14T07:00:54.477Z,9.88
2022-09-14T07:03:21.646Z,9.93
2022-09-14T07:05:48.862Z,9.68
2022-09-14T07:08:16.101Z,7.88
2022-09-14T07:10:44.213Z,7.10
2022-09-14T07:13:11.413Z,6.80
2022-09-14T07:15:38.538Z,7.32
2022-09-14T07:18:06.726Z,6.50
2022-09-14T07:20:34.658Z,7.60
2022-09-14T07:23:01.786Z,7.25
2022-09-14T07:25:29.023Z,5.38
2022-09-14T07:27:56.277Z,4.70
2022-09-14T07:30:25.042Z,4.05
2022-09-14T07:32:52.243Z,5.15
2022-09-14T07:35:19.432Z,4.80
2022-09-14T07:37:46.564Z,4.85
2022-09-14T07:40:13.782Z,6.00
2022-09-14T07:42:40.922Z,5.95
2022-09-14T07:45:08.260Z,5.25
2022-09-14T07:47:35.393Z,4.30
2022-09-14T07:50:02.622Z,4.75
2022-09-14T07:52:29.857Z,4.60
2022-09-14T07:54:57.139Z,5.05
2022-09-14T07:57:45.424Z,4.78
2022-09-14T08:00:12.929Z,5.63
2022-09-14T08:02:40.066Z,5.13
2022-09-14T08:05:07.640Z,5.53
2022-09-14T08:07:37.910Z,6.25
2022-09-14T08:10:05.640Z,4.45
2022-09-14T08:12:33.014Z,4.68
2022-09-14T08:15:02.264Z,4.15
2022-09-14T08:17:29.472Z,3.13
2022-09-14T08:19:57.100Z,4.00
2022-09-14T08:22:25.536Z,4.45
2022-09-14T08:24:52.781Z,6.07
2022-09-14T08:27:19.887Z,5.30
2022-09-14T08:29:47.029Z,5.75
2022-09-14T08:32:14.176Z,5.95
2022-09-14T08:34:41.409Z,4.50
2022-09-14T08:37:10.220Z,4.68
2022-09-14T08:39:37.370Z,4.90
2022-09-14T08:42:06.170Z,4.35
2022-09-14T08:44:47.652Z,4.32
2022-09-14T08:47:28.876Z,4.30
2022-09-14T08:50:02.319Z,4.30
2022-09-14T08:52:37.829Z,4.40
2022-09-14T08:55:24.087Z,5.07
2022-09-14T08:58:15.074Z,3.20
2022-09-14T09:00:48.336Z,2.92
2022-09-14T09:03:27.790Z,3.22
2022-09-14T09:06:15.661Z,3.38
2022-09-14T09:08:50.213Z,4.00
2022-09-14T09:11:21.681Z,3.80
2022-09-14T09:13:50.685Z,3.80
2022-09-14T09:16:20.387Z,4.18
2022-09-14T09:18:49.807Z,3.55
2022-09-14T09:21:16.978Z,3.17
2022-09-14T09:23:44.759Z,3.70
2022-09-14T09:26:12.005Z,3.90
2022-09-14T09:28:43.486Z,3.63
2022-09-14T09:31:14.950Z,3.22
2022-09-14T09:33:42.766Z,3.10
2022-09-14T09:36:13.432Z,2.30
2022-09-14T09:38:43.210Z,2.38
2022-09-14T09:41:18.149Z,2.70
2022-09-14T09:44:06.939Z,3.03
2022-09-14T09:46:35.443Z,2.92
2022-09-14T09:49:03.812Z,2.90
2022-09-14T09:51:32.092Z,2.60
2022-09-14T09:53:59.878Z,2.92
2022-09-14T09:56:28.373Z,3.20
2022-09-14T09:58:55.888Z,4.20
2022-09-14T10:01:28.715Z,4.20
2022-09-14T10:04:04.103Z,3.45
2022-09-14T10:06:31.950Z,2.78
2022-09-14T10:08:59.508Z,2.33
2022-09-14T10:11:37.814Z,2.33
2022-09-14T10:14:06.193Z,2.15
2022-09-14T10:16:39.093Z,1.40
2022-09-14T10:19:13.997Z,1.40
2022-09-14T10:22:01.250Z,1.20
2022-09-14T10:24:28.512Z,1.45
2022-09-14T10:26:55.620Z,0.95
2022-09-14T10:29:38.917Z,1.17
2022-09-14T10:32:12.625Z,1.02
2022-09-14T10:34:39.780Z,1.38
2022-09-14T10:37:12.428Z,1.45
2022-09-14T10:39:42.316Z,1.50
2022-09-14T10:42:12.837Z,1.88
2022-09-14T10:44:59.534Z,1.70
2022-09-14T10:47:52.835Z,2.13
2022-09-14T10:50:35.542Z,1.20
2022-09-14T10:53:21.570Z,1.40
2022-09-14T10:56:01.223Z,1.20
2022-09-14T10:58:49.963Z,1.48
2022-09-14T11:01:17.196Z,1.30
2022-09-14T11:04:09.094Z,1.25
2022-09-14T11:06:55.180Z,1.10
2022-09-14T11:09:37.332Z,1.05
2022-09-14T11:12:06.833Z,1.02
2022-09-14T11:14:33.958Z,1.00
2022-09-14T11:17:01.069Z,1.13
2022-09-14T11:19:47.163Z,1.23
2022-09-14T11:22:29.573Z,1.20
2022-09-14T11:25:15.336Z,1.15
2022-09-14T11:27:45.715Z,1.10
2022-09-14T11:30:19.914Z,1.25
2022-09-14T11:32:53.807Z,1.10
2022-09-14T11:35:20.927Z,1.23
2022-09-14T11:37:50.465Z,1.30
2022-09-14T11:40:20.956Z,1.08
2022-09-14T11:43:00.461Z,1.60
2022-09-14T11:45:33.017Z,1.30
2022-09-14T11:48:03.253Z,1.50
2022-09-14T11:50:31.971Z,1.70
2022-09-14T11:53:04.085Z,1.48
2022-09-14T11:55:31.656Z,1.45
2022-09-14T11:57:59.942Z,1.42
2022-09-14T12:00:33.481Z,1.55
2022-09-14T12:03:13.314Z,1.33
2022-09-14T12:05:41.018Z,1.25
2022-09-14T12:08:27.459Z,1.67
2022-09-14T12:11:10.213Z,1.20
2022-09-14T12:13:37.945Z,1.40
2022-09-14T12:16:06.551Z,1.30
2022-09-14T12:18:36.469Z,1.50
2022-09-14T12:21:05.554Z,1.20
2022-09-14T12:23:42.238Z,0.95
2022-09-14T12:26:12.579Z,1.27
2022-09-14T12:28:50.486Z,1.35
2022-09-14T12:31:37.248Z,0.77
2022-09-14T12:34:23.425Z,0.80
2022-09-14T12:36:50.539Z,0.52
2022-09-14T12:39:28.819Z,0.60
2022-09-14T12:41:55.950Z,0.70
2022-09-14T12:44:30.344Z,0.50
2022-09-14T12:46:57.798Z,0.60
2022-09-14T12:49:29.615Z,0.50
2022-09-14T12:51:57.443Z,0.70
2022-09-14T12:54:32.400Z,0.50
2022-09-14T12:57:08.055Z,0.50
2022-09-14T12:59:53.379Z,0.52
2022-09-14T13:02:39.512Z,0.60
2022-09-14T13:05:12.757Z,0.70
2022-09-14T13:07:40.217Z,1.00
2022-09-14T13:10:07.820Z,1.02
2022-09-14T13:12:35.059Z,0.93
2022-09-14T13:15:03.894Z,1.33
2022-09-14T13:17:31.033Z,1.30
2022-09-14T13:19:59.447Z,1.30
2022-09-14T13:22:29.349Z,1.20
2022-09-14T13:24:56.977Z,1.30
2022-09-14T13:27:28.614Z,1.30
2022-09-14T13:30:00.267Z,1.33
2022-09-14T13:32:27.747Z,1.20
2022-09-14T13:34:55.353Z,1.55
2022-09-14T13:37:22.663Z,1.48
2022-09-14T13:39:52.111Z,1.42
2022-09-14T13:42:19.721Z,1.40
2022-09-14T13:44:48.014Z,1.80
2022-09-14T13:47:16.362Z,2.03
2022-09-14T13:49:45.117Z,2.20
2022-09-14T13:52:19.583Z,1.83
2022-09-14T13:54:46.914Z,1.90
2022-09-14T13:57:21.513Z,2.22
2022-09-14T14:00:08.812Z,2.30
2022-09-14T14:02:36.787Z,2.50
2022-09-14T14:05:06.192Z,2.65
2022-09-14T14:07:34.580Z,2.65
2022-09-14T14:10:04.071Z,2.85
2022-09-14T14:12:42.096Z,3.67
2022-09-14T14:15:12.391Z,3.25
2022-09-14T14:17:40.869Z,4.40
2022-09-14T14:20:27.026Z,4.25
2022-09-14T14:22:58.936Z,3.35
2022-09-14T14:25:33.405Z,2.90
2022-09-14T14:28:01.795Z,3.13
2022-09-14T14:30:30.311Z,4.20
2022-09-14T14:32:59.056Z,4.10
2022-09-14T14:35:30.817Z,3.75
2022-09-14T14:37:58.084Z,3.30
2022-09-14T14:40:27.313Z,3.30
2022-09-14T14:42:55.242Z,3.50
2022-09-14T14:45:26.460Z,3.10
2022-09-14T14:47:54.628Z,5.03
2022-09-14T14:50:23.550Z,5.72
2022-09-14T14:52:51.770Z,5.07
2022-09-14T14:55:21.123Z,5.10
2022-09-14T14:57:48.754Z,5.35
2022-09-14T15:00:17.840Z,5.75
2022-09-14T15:02:45.515Z,6.07
2022-09-14T15:05:13.235Z,5.75
2022-09-14T15:07:40.821Z,5.47
2022-09-14T15:10:08.391Z,6.20
2022-09-14T15:12:35.775Z,6.15
2022-09-14T15:15:02.967Z,8.02
2022-09-14T15:17:30.096Z,6.97
2022-09-14T15:19:57.234Z,8.32
2022-09-14T15:22:25.193Z,7.72
2022-09-14T15:24:52.385Z,8.10
2022-09-14T15:27:19.518Z,9.00
2022-09-14T15:29:46.697Z,7.82
2022-09-14T15:32:14.865Z,7.60
2022-09-14T15:34:42.107Z,7.55
2022-09-14T15:37:09.661Z,8.30
2022-09-14T15:39:37.670Z,8.73
2022-09-14T15:42:07.852Z,8.85
2022-09-14T15:44:35.306Z,7.72
2022-09-14T15:47:02.508Z,8.02
2022-09-14T15:49:29.691Z,7.55
2022-09-14T15:51:57.562Z,9.10
2022-09-14T15:54:25.594Z,14.80
2022-09-14T15:56:54.889Z,10.20
2022-09-14T15:59:22.354Z,11.25
2022-09-14T16:01:49.918Z,10.20
2022-09-14T16:04:17.659Z,10.70
2022-09-14T16:06:44.769Z,11.48
2022-09-14T16:09:12.462Z,12.95
2022-09-14T16:11:39.935Z,12.25
2022-09-14T16:14:07.895Z,10.07
2022-09-14T16:16:35.840Z,11.57
2022-09-14T16:19:10.922Z,9.57
2022-09-14T16:21:38.229Z,12.23
2022-09-14T16:24:06.278Z,10.60
2022-09-14T16:26:34.727Z,11.07
2022-09-14T16:29:01.788Z,10.88
2022-09-14T16:31:30.955Z,11.45
2022-09-14T16:33:59.104Z,6.95
2022-09-14T16:36:27.465Z,7.05
2022-09-14T16:38:56.560Z,6.57
2022-09-14T16:41:23.733Z,5.72
2022-09-14T16:43:56.991Z,4.65
2022-09-14T16:46:24.495Z,5.35
2022-09-14T16:48:51.901Z,5.70
2022-09-14T16:51:21.249Z,5.80
2022-09-14T16:53:49.007Z,6.00
2022-09-14T16:56:20.102Z,5.70
2022-09-14T16:58:48.167Z,6.85
2022-09-14T17:01:18.372Z,6.28
2022-09-14T17:03:46.421Z,6.80
2022-09-14T17:06:15.574Z,7.47
2022-09-14T17:08:44.092Z,7.90
2022-09-14T17:11:11.604Z,10.07
2022-09-14T17:13:38.711Z,9.50
2022-09-14T17:16:07.174Z,10.15
2022-09-14T17:18:35.038Z,10.05
2022-09-14T17:21:07.112Z,10.10
2022-09-14T17:23:34.426Z,9.35
2022-09-14T17:26:01.591Z,8.02
2022-09-14T17:28:29.281Z,7.80
2022-09-14T17:30:57.710Z,8.35
2022-09-14T17:33:25.339Z,8.25
2022-09-14T17:35:53.728Z,8.57
2022-09-14T17:38:21.630Z,8.93
2022-09-14T17:40:49.276Z,9.15
2022-09-14T17:43:16.849Z,11.00
2022-09-14T17:45:54.155Z,9.50
2022-09-14T17:48:21.979Z,8.85
2022-09-14T17:50:49.156Z,8.40
2022-09-14T17:53:16.578Z,9.10
2022-09-14T17:55:43.747Z,8.05
2022-09-14T17:58:10.941Z,8.68
2022-09-14T18:00:38.020Z,8.38
2022-09-14T18:03:05.084Z,8.85
2022-09-14T18:05:32.445Z,8.73
2022-09-14T18:07:59.502Z,7.65
2022-09-14T18:10:26.867Z,8.23
2022-09-14T18:12:53.936Z,8.32
2022-09-14T18:15:20.975Z,8.38
2022-09-14T18:17:48.154Z,9.88
2022-09-14T18:20:15.557Z,11.43
2022-09-14T18:22:42.759Z,9.82
2022-09-14T18:25:10.370Z,11.98
2022-09-14T18:27:37.442Z,10.52
2022-09-14T18:30:04.735Z,9.98
2022-09-14T18:32:31.830Z,9.45
2022-09-14T18:34:59.143Z,9.52
2022-09-14T18:37:26.962Z,9.38
2022-09-14T18:39:54.066Z,12.80
2022-09-14T18:42:21.202Z,8.77
2022-09-14T18:44:53.663Z,9.23
2022-09-14T18:47:22.458Z,9.20
2022-09-14T18:49:50.122Z,8.25
2022-09-14T18:52:20.334Z,8.85
2022-09-14T18:54:47.363Z,9.70
2022-09-14T18:57:17.563Z,9.48
2022-09-14T18:59:44.695Z,9.48
2022-09-14T19:02:11.980Z,9.05
2022-09-14T19:04:39.355Z,9.35
2022-09-14T19:07:06.451Z,9.18
2022-09-14T19:09:33.582Z,10.02
2022-09-14T19:12:00.770Z,11.30
2022-09-14T19:14:27.947Z,9.80
2022-09-14T19:16:57.390Z,13.27
2022-09-14T19:19:26.173Z,11.00
2022-09-14T19:21:54.131Z,11.82
2022-09-14T19:24:21.442Z,10.60
2022-09-14T19:26:51.702Z,9.63
2022-09-14T19:29:23.699Z,11.25
2022-09-14T19:31:52.069Z,9.90
2022-09-14T19:34:20.032Z,9.80
2022-09-14T19:36:47.590Z,9.70
2022-09-14T19:39:15.309Z,10.85
2022-09-14T19:41:42.663Z,10.55
2022-09-14T19:44:09.936Z,10.07
2022-09-14T19:46:39.395Z,9.52
2022-09-14T19:49:07.949Z,9.95
2022-09-14T19:51:35.764Z,9.68
2022-09-14T19:54:02.809Z,11.98
2022-09-14T19:56:30.929Z,10.13
2022-09-14T19:59:02.774Z,8.60
2022-09-14T20:01:30.718Z,9.10
2022-09-14T20:03:57.998Z,7.72
2022-09-14T20:06:26.604Z,7.45
2022-09-14T20:08:56.582Z,8.15
2022-09-14T20:11:25.303Z,6.55
2022-09-14T20:13:56.115Z,6.50
2022-09-14T20:16:24.690Z,4.97
2022-09-14T20:18:52.595Z,5.55
2022-09-14T20:21:20.983Z,6.32
2022-09-14T20:24:11.393Z,6.65
2022-09-14T20:26:35.587Z,4.00
2022-09-14T20:29:02.709Z,2.63
2022-09-14T20:31:30.473Z,2.10
2022-09-14T20:33:58.190Z,1.40
2022-09-14T20:36:25.889Z,1.25
2022-09-14T20:38:57.093Z,1.67
2022-09-14T20:41:25.132Z,2.10
2022-09-14T20:43:52.649Z,1.63
2022-09-14T20:46:21.074Z,2.03
2022-09-14T20:48:48.766Z,1.67
2022-09-14T20:51:20.010Z,2.00
2022-09-14T20:53:48.311Z,1.55
2022-09-14T20:56:16.608Z,1.50
2022-09-14T20:58:44.596Z,1.50
2022-09-14T21:01:13.200Z,1.63
2022-09-14T21:03:42.206Z,1.33
2022-09-14T21:06:10.640Z,2.30
2022-09-14T21:08:38.547Z,0.85
2022-09-14T21:11:07.217Z,0.73
2022-09-14T21:13:34.898Z,0.60
2022-09-14T21:16:15.804Z,1.00
2022-09-14T21:18:43.334Z,0.80
2022-09-14T21:21:11.740Z,1.00
2022-09-14T21:23:38.837Z,0.70
2022-09-14T21:26:07.057Z,1.63
2022-09-14T21:28:37.923Z,0.70
2022-09-14T21:31:04.977Z,0.80
2022-09-14T21:33:33.418Z,0.50
2022-09-14T21:36:05.278Z,0.90
2022-09-14T21:38:32.712Z,0.65
2022-09-14T21:40:59.946Z,0.80
2022-09-14T21:43:27.425Z,0.68
2022-09-14T21:45:54.810Z,0.40
2022-09-14T21:48:21.926Z,0.60
2022-09-14T21:50:49.070Z,0.38
2022-09-14T21:53:16.107Z,0.60
2022-09-14T21:55:44.159Z,0.85
2022-09-14T21:58:11.295Z,0.60
2022-09-14T22:00:38.322Z,0.57
2022-09-14T22:03:05.510Z,0.80
2022-09-14T22:05:32.563Z,0.40
2022-09-14T22:07:59.657Z,0.70
2022-09-14T22:10:27.128Z,0.70
2022-09-14T22:12:54.663Z,0.63
2022-09-14T22:15:21.723Z,0.40
2022-09-14T22:17:49.769Z,0.70
2022-09-14T22:20:16.899Z,0.43
2022-09-14T22:22:44.641Z,0.50
2022-09-14T22:25:11.696Z,0.52
2022-09-14T22:27:39.850Z,0.40
2022-09-14T22:30:07.292Z,0.30
2022-09-14T22:32:34.352Z,0.38
2022-09-14T22:35:01.384Z,0.43
2022-09-14T22:37:28.542Z,0.40
2022-09-14T22:39:55.809Z,0.40
2022-09-14T22:42:23.860Z,0.30
2022-09-14T22:44:50.969Z,0.43
2022-09-14T22:47:18.039Z,0.40
2022-09-14T22:49:45.124Z,0.20
2022-09-14T22:52:13.069Z,0.40
2022-09-14T22:54:40.229Z,0.20
2022-09-14T22:57:07.490Z,0.30
2022-09-14T22:59:34.619Z,0.57
2022-09-14T23:02:01.722Z,0.80
2022-09-14T23:04:28.834Z,0.47
2022-09-14T23:06:55.899Z,0.30
2022-09-14T23:09:23.046Z,0.40
2022-09-14T23:11:50.273Z,0.20
2022-09-14T23:14:17.459Z,0.30
2022-09-14T23:16:45.112Z,0.30
2022-09-14T23:19:14.969Z,0.40
2022-09-14T23:21:42.002Z,0.95
2022-09-14T23:24:11.307Z,0.20
2022-09-14T23:26:38.562Z,0.50
2022-09-14T23:29:09.096Z,0.40
2022-09-14T23:31:36.455Z,0.68
2022-09-14T23:34:04.730Z,0.40
2022-09-14T23:36:32.155Z,0.30
2022-09-14T23:38:59.335Z,0.40
2022-09-14T23:41:26.914Z,0.43
2022-09-14T23:43:54.098Z,0.80
2022-09-14T23:46:21.701Z,1.15
2022-09-14T23:48:48.830Z,0.70
2022-09-14T23:51:16.196Z,0.50
2022-09-14T23:53:43.496Z,0.68
2022-09-14T23:56:11.054Z,0.40
2022-09-14T23:58:38.306Z,0.35
